This is the latest recevied weather packets stored in our database for station/object ED2YAA-10. If no packets are shown the sender has not sent any weather packets the latest 10 day(s).
| Time | Temp. | Humidity | Pressure | Rain* | Wind** | Luminosity | Snow |
|---|---|---|---|---|---|---|---|
| 1777507005 | 22.22° C | 38% | 925.1 hPa | - | - | - | - |
| 1777506104 | 22.22° C | 38% | 924.6 hPa | - | - | - | - |
| 1777505203 | 22.22° C | 38% | 925.1 hPa | - | - | - | - |
| 1777504301 | 22.22° C | 38% | 925.7 hPa | - | - | - | - |
| 1777503401 | 22.22° C | 38% | 925.8 hPa | - | - | - | - |
| 1777502501 | 22.22° C | 38% | 925.7 hPa | - | - | - | - |
| 1777501601 | 22.22° C | 38% | 925.5 hPa | - | - | - | - |
| 1777500704 | 22.78° C | 38% | 925.5 hPa | - | - | - | - |
| 1777499801 | 22.78° C | 38% | 925.3 hPa | - | - | - | - |
| 1777498901 | 22.78° C | 38% | 925.2 hPa | - | - | - | - |
| 1777498001 | 23.33° C | 38% | 925.3 hPa | - | - | - | - |
| 1777497101 | 23.89° C | 37% | 925 hPa | - | - | - | - |
| 1777496201 | 23.89° C | 37% | 924.2 hPa | - | - | - | - |
| 1777495301 | 24.44° C | 36% | 924.7 hPa | - | - | - | - |
| 1777494401 | 25° C | 35% | 924.5 hPa | - | - | - | - |
| 1777493501 | 25.56° C | 36% | 924.4 hPa | - | - | - | - |
| 1777476419 | 30.56° C | 34% | 922.1 hPa | - | - | - | - |
| 1777475519 | 30.56° C | 34% | 922 hPa | - | - | - | - |
| 1777474619 | 30.56° C | 35% | 922 hPa | - | - | - | - |
| 1777473719 | 30° C | 35% | 922.1 hPa | - | - | - | - |
| 1777472819 | 30° C | 36% | 921.9 hPa | - | - | - | - |
| 1777471919 | 29.44° C | 36% | 921.8 hPa | - | - | - | - |
| 1777471019 | 29.44° C | 36% | 921.8 hPa | - | - | - | - |
| 1777470119 | 30° C | 37% | 922 hPa | - | - | - | - |
| 1777469219 | 33.33° C | 33% | 921.9 hPa | - | - | - | - |
* Rain since midnight (hover to see other rain measurements)
** Current wind speed in m/s (hover to see current wind gust speed)